KMLS/MLS METAR and TAF weather

Enter ICAO airport designator
Station Type Date Time Source
KMLS METAR 2022/12/04 10:53 UTC NOAA

KMLS 041053Z AUTO 17005KT 10SM CLR M13/M15 A3007 RMK AO2 SLP224 T11281150


Station Type Date Time Source
KMLS Decoded METAR 2022/12/04 10:53 UTC NOAA

MILES CITY WILEY FIELD, MT, United States (KMLS) 46-26N 105-53W 801M
Dec 04, 2022 - 05:53 AM EST / 2022.12.04 1053 UTC
Wind: from the S (170 degrees) at 6 MPH (5 KT):0
Visibility: 10 mile(s):0
Sky conditions: clear
Temperature: 9.0 F (-12.8 C)
Windchill: 0 F (-18 C):1
Dew Point: 5.0 F (-15.0 C)
Relative Humidity: 83%
Pressure (altimeter): 30.07 in. Hg (1018 hPa)
ob: KMLS 041053Z AUTO 17005KT 10SM CLR M13/M15 A3007 RMK AO2 SLP224 T11281150
cycle: 11

Station Type Date Time Source
KMLS TAF 2022/12/04 06:27 UTC NOAA

TAF KMLS 040524Z 0406/0506 VRB06KT P6SM SCT200
FM042000 31010KT P6SM SCT100 BKN200

Example: see airport list